Time;durP1;ratioP1;P1;durP2;ratioP2;P2;SDS_P1;SDS_P2;PMS_P1;PMS_P2;Temp;Humidity;BMP_temperature;BMP_pressure;BME280_temperature;BME280_humidity;BME280_pressure;Samples;Min_cycle;Max_cycle;Signal;HPM_P1;HPM_P2
2022/03/21 00:00:48;;;;;;;4.32;3.30;;;23.90;29.50;;;;;;5094154;28;20390;-62
2022/03/21 00:03:16;;;;;;;3.75;3.20;;;23.90;29.50;;;;;;5093864;28;20792;-63
2022/03/21 00:05:43;;;;;;;4.70;3.67;;;23.90;29.50;;;;;;5094240;28;20746;-62
2022/03/21 00:08:11;;;;;;;3.88;3.40;;;23.80;29.50;;;;;;5094247;28;20424;-63
2022/03/21 00:10:38;;;;;;;4.55;3.50;;;23.80;29.40;;;;;;5094084;28;20382;-63
2022/03/21 00:13:04;;;;;;;3.63;3.13;;;23.90;29.50;;;;;;5093704;28;20390;-63
2022/03/21 00:15:34;;;;;;;3.80;3.15;;;23.90;29.50;;;;;;5094155;28;20473;-63
2022/03/21 00:18:03;;;;;;;4.03;3.30;;;23.90;29.50;;;;;;5094125;28;20485;-63
2022/03/21 00:20:30;;;;;;;3.80;3.08;;;23.80;29.40;;;;;;5093787;28;20385;-62
2022/03/21 00:22:56;;;;;;;3.78;3.20;;;23.80;29.40;;;;;;5093830;28;20414;-63
2022/03/21 00:25:22;;;;;;;4.03;3.25;;;23.80;29.40;;;;;;5093536;28;20377;-62
2022/03/21 00:27:48;;;;;;;3.50;3.10;;;23.80;29.40;;;;;;5093287;28;20414;-62
2022/03/21 00:30:15;;;;;;;3.60;3.20;;;23.80;29.30;;;;;;5093813;28;20378;-63
2022/03/21 00:32:42;;;;;;;3.60;3.22;;;23.80;29.30;;;;;;5093811;28;20382;-62
2022/03/21 00:35:09;;;;;;;4.20;3.22;;;23.80;29.30;;;;;;5093392;28;20382;-62
2022/03/21 00:37:37;;;;;;;3.85;3.22;;;23.80;29.30;;;;;;5093766;28;20916;-64
2022/03/21 00:40:05;;;;;;;3.97;3.03;;;23.80;29.30;;;;;;5093756;28;20421;-62
2022/03/21 00:42:34;;;;;;;4.18;3.35;;;23.80;29.30;;;;;;5093589;28;20394;-64
2022/03/21 00:45:03;;;;;;;3.50;3.20;;;23.80;29.30;;;;;;5093052;28;20378;-63
2022/03/21 00:47:29;;;;;;;3.80;3.25;;;23.80;29.30;;;;;;5093463;28;20422;-63
2022/03/21 00:49:55;;;;;;;3.92;3.20;;;23.80;29.20;;;;;;5093834;28;20386;-64
2022/03/21 00:52:21;;;;;;;3.60;3.10;;;23.80;29.20;;;;;;5093818;28;20386;-63
2022/03/21 00:54:47;;;;;;;3.42;3.00;;;23.80;29.20;;;;;;5093673;28;20370;-63
2022/03/21 00:57:12;;;;;;;3.70;3.20;;;23.80;29.30;;;;;;5092865;28;20398;-63
2022/03/21 00:59:38;;;;;;;3.78;3.05;;;23.80;29.30;;;;;;5093447;28;20846;-62
2022/03/21 01:02:04;;;;;;;4.23;3.23;;;23.70;29.10;;;;;;5093325;28;20394;-63
2022/03/21 01:04:30;;;;;;;4.10;3.20;;;23.70;29.10;;;;;;5093470;28;20379;-62
2022/03/21 01:06:55;;;;;;;4.03;3.22;;;23.70;29.10;;;;;;5091997;28;20410;-63
2022/03/21 01:09:21;;;;;;;3.50;3.07;;;23.70;29.00;;;;;;5093010;28;20374;-63
2022/03/21 01:11:47;;;;;;;3.97;3.30;;;23.70;29.00;;;;;;5093295;28;20394;-63
2022/03/21 01:14:13;;;;;;;4.53;3.15;;;23.70;28.90;;;;;;5093091;28;20708;-62
2022/03/21 01:16:38;;;;;;;3.78;3.13;;;23.70;28.90;;;;;;5093126;28;20452;-63
2022/03/21 01:19:05;;;;;;;3.70;3.27;;;23.70;28.90;;;;;;5092663;28;20417;-63
2022/03/21 01:21:32;;;;;;;3.83;3.20;;;23.70;28.80;;;;;;5092916;28;20401;-62
2022/03/21 01:23:58;;;;;;;4.55;3.30;;;23.70;28.80;;;;;;5093001;28;20458;-62
2022/03/21 01:26:24;;;;;;;4.93;3.75;;;23.70;28.80;;;;;;5092152;28;20481;-62
2022/03/21 01:28:49;;;;;;;3.92;3.25;;;23.70;28.70;;;;;;5092094;28;20477;-63
2022/03/21 01:31:16;;;;;;;3.90;3.40;;;23.70;28.70;;;;;;5092295;28;20397;-63
2022/03/21 01:33:41;;;;;;;4.03;2.92;;;23.70;28.70;;;;;;5092741;28;20386;-62
2022/03/21 01:36:08;;;;;;;4.03;3.20;;;23.70;28.70;;;;;;5091413;28;20398;-62
2022/03/21 01:38:34;;;;;;;3.72;3.20;;;23.70;28.70;;;;;;5091357;28;20481;-62
2022/03/21 01:41:00;;;;;;;4.47;3.30;;;23.70;28.60;;;;;;5091947;28;20442;-62
2022/03/21 01:43:26;;;;;;;3.73;3.30;;;23.60;28.60;;;;;;5091750;28;20398;-62
2022/03/21 01:45:52;;;;;;;4.40;3.08;;;23.60;28.60;;;;;;5092123;28;20805;-63
2022/03/21 01:48:18;;;;;;;3.95;3.05;;;23.60;28.60;;;;;;5092463;28;20381;-62
2022/03/21 01:50:44;;;;;;;3.90;2.90;;;23.60;28.60;;;;;;5092407;28;20885;-62
2022/03/21 01:55:58;;;;;;;3.90;3.15;;;23.60;28.60;;;;;;5092443;28;20388;-63
2022/03/21 01:58:25;;;;;;;4.57;3.30;;;23.60;28.60;;;;;;5092236;28;20374;-63
2022/03/21 02:00:51;;;;;;;3.80;3.03;;;23.60;28.60;;;;;;5092293;28;20394;-62
2022/03/21 02:03:21;;;;;;;3.80;3.17;;;23.60;28.50;;;;;;5091634;28;20390;-63
2022/03/21 02:05:47;;;;;;;3.78;3.33;;;23.60;28.50;;;;;;5092121;28;20418;-63
2022/03/21 02:08:13;;;;;;;4.00;3.40;;;23.60;28.50;;;;;;5091949;28;20445;-62
2022/03/21 02:10:42;;;;;;;3.58;3.28;;;23.60;28.50;;;;;;5092148;28;20390;-63
2022/03/21 02:13:09;;;;;;;4.00;3.10;;;23.60;28.50;;;;;;5091544;28;20394;-63
2022/03/21 02:15:35;;;;;;;3.90;3.20;;;23.60;28.50;;;;;;5092088;28;20409;-63
2022/03/21 02:18:02;;;;;;;3.72;2.92;;;23.50;28.40;;;;;;5092019;28;20752;-63
2022/03/21 02:20:36;;;;;;;3.97;3.15;;;23.60;28.50;;;;;;5091805;28;20394;-63
2022/03/21 02:23:11;;;;;;;3.70;3.10;;;23.60;28.50;;;;;;5091744;28;20424;-63
2022/03/21 02:25:43;;;;;;;3.35;2.90;;;23.50;28.40;;;;;;5091849;28;20897;-63
2022/03/21 02:28:15;;;;;;;4.05;3.08;;;23.50;28.40;;;;;;5091761;28;20916;-62
2022/03/21 02:30:46;;;;;;;3.83;3.30;;;23.50;28.40;;;;;;5091841;28;20406;-63
2022/03/21 02:33:14;;;;;;;3.83;3.10;;;23.50;28.40;;;;;;5091347;28;20456;-63
2022/03/21 02:35:44;;;;;;;3.88;3.17;;;23.50;28.40;;;;;;5091833;28;20374;-63
2022/03/21 02:38:12;;;;;;;4.40;3.30;;;23.50;28.40;;;;;;5091520;28;20877;-63
2022/03/21 02:40:38;;;;;;;4.32;3.22;;;23.50;28.40;;;;;;5091521;28;20390;-63
2022/03/21 02:43:04;;;;;;;3.58;3.03;;;23.50;28.40;;;;;;5091401;28;20469;-62
2022/03/21 02:45:30;;;;;;;3.45;2.95;;;23.50;28.40;;;;;;5091447;28;20492;-63
2022/03/21 02:47:56;;;;;;;3.30;2.90;;;23.50;28.40;;;;;;5091526;28;20493;-63
2022/03/21 02:50:40;;;;;;;3.90;3.10;;;23.50;28.30;;;;;;5091484;28;20389;-63
2022/03/21 02:53:08;;;;;;;3.70;3.30;;;23.50;28.30;;;;;;5091098;28;20523;-63
2022/03/21 02:55:34;;;;;;;4.63;3.20;;;23.50;28.30;;;;;;5091231;28;20384;-63
2022/03/21 02:57:59;;;;;;;4.13;3.20;;;23.40;28.30;;;;;;5090909;28;20784;-63
2022/03/21 03:00:25;;;;;;;3.70;3.10;;;23.40;28.30;;;;;;5091239;28;20747;-62
2022/03/21 03:02:51;;;;;;;3.22;2.90;;;23.40;28.30;;;;;;5091465;28;20739;-62
2022/03/21 03:05:17;;;;;;;4.13;3.23;;;23.40;28.30;;;;;;5090941;28;20400;-63
2022/03/21 03:07:42;;;;;;;4.03;3.10;;;23.40;28.20;;;;;;5091332;28;20422;-62
2022/03/21 03:10:08;;;;;;;4.40;3.30;;;23.40;28.20;;;;;;5091371;28;20378;-63
2022/03/21 03:12:34;;;;;;;3.67;2.90;;;23.40;28.20;;;;;;5091520;28;20394;-62
2022/03/21 03:14:59;;;;;;;3.80;3.23;;;23.50;28.30;;;;;;5091147;28;20382;-62
2022/03/21 03:17:25;;;;;;;3.60;3.00;;;23.40;28.20;;;;;;5091054;28;20397;-62
2022/03/21 03:19:51;;;;;;;3.90;3.30;;;23.40;28.20;;;;;;5090162;28;20723;-63
2022/03/21 03:22:18;;;;;;;3.63;3.20;;;23.40;28.20;;;;;;5091261;28;20937;-63
2022/03/21 03:24:45;;;;;;;3.92;3.00;;;23.40;28.20;;;;;;5091339;28;20465;-63
2022/03/21 03:27:11;;;;;;;3.90;2.90;;;23.40;28.70;;;;;;5090668;28;20468;-63
2022/03/21 03:29:36;;;;;;;3.50;2.80;;;23.40;28.20;;;;;;5093637;28;20818;-62
2022/03/21 03:32:05;;;;;;;3.57;2.90;;;23.40;28.30;;;;;;5095096;28;20394;-63
2022/03/21 03:34:33;;;;;;;3.78;3.00;;;23.40;28.20;;;;;;5095126;28;20385;-63
2022/03/21 03:36:59;;;;;;;3.93;3.00;;;23.40;28.20;;;;;;5094793;28;20462;-62
2022/03/21 03:39:25;;;;;;;3.90;3.10;;;23.30;28.10;;;;;;5094803;28;20405;-62
2022/03/21 03:41:51;;;;;;;3.65;2.92;;;23.30;28.20;;;;;;5094917;28;20822;-62
2022/03/21 03:44:17;;;;;;;3.87;2.97;;;23.30;28.20;;;;;;5094853;28;20429;-63
2022/03/21 03:46:44;;;;;;;4.32;3.30;;;23.30;28.10;;;;;;5094937;28;20758;-63
2022/03/21 03:49:10;;;;;;;3.15;2.70;;;23.30;28.20;;;;;;5094540;28;20784;-63
2022/03/21 03:51:36;;;;;;;3.33;2.90;;;23.30;28.20;;;;;;5094798;28;20382;-63
2022/03/21 03:54:01;;;;;;;3.95;3.15;;;23.30;28.20;;;;;;5093504;28;20389;-62
2022/03/21 03:56:27;;;;;;;3.90;3.10;;;23.30;28.20;;;;;;5093942;28;20382;-63
2022/03/21 03:58:52;;;;;;;3.33;2.80;;;23.30;28.20;;;;;;5094462;28;20378;-63
2022/03/21 04:01:18;;;;;;;3.90;3.13;;;23.30;28.20;;;;;;5094080;28;20947;-63
2022/03/21 04:03:46;;;;;;;3.55;2.92;;;23.30;28.20;;;;;;5094624;28;20390;-63
2022/03/21 04:06:23;;;;;;;3.88;3.17;;;23.30;28.10;;;;;;5094304;28;20390;-63
2022/03/21 04:08:50;;;;;;;3.65;3.10;;;23.20;28.30;;;;;;5094428;28;20404;-62
2022/03/21 04:11:16;;;;;;;5.38;3.00;;;23.20;28.80;;;;;;5093292;28;20428;-62
2022/03/21 04:13:42;;;;;;;6.63;3.40;;;23.20;28.90;;;;;;5094176;28;20862;-62
2022/03/21 04:16:09;;;;;;;7.65;3.00;;;23.20;29.20;;;;;;5093998;28;20382;-62
2022/03/21 04:18:35;;;;;;;3.97;3.08;;;23.30;29.00;;;;;;5094301;28;20394;-63
2022/03/21 04:21:01;;;;;;;6.82;3.33;;;23.30;29.30;;;;;;5093924;28;20862;-62
2022/03/21 04:23:27;;;;;;;5.50;2.97;;;23.30;29.40;;;;;;5093876;28;20814;-63
2022/03/21 04:25:52;;;;;;;4.65;3.05;;;23.20;29.80;;;;;;5093869;28;20417;-62
2022/03/21 04:28:18;;;;;;;5.30;3.07;;;23.30;29.60;;;;;;5093951;28;20501;-62
2022/03/21 04:30:44;;;;;;;5.65;3.40;;;23.20;29.70;;;;;;5094090;28;20386;-62
2022/03/21 04:33:14;;;;;;;6.10;2.97;;;23.20;29.60;;;;;;5093583;28;20731;-63
2022/03/21 04:35:41;;;;;;;6.28;3.28;;;23.20;29.80;;;;;;5093879;28;20397;-62
2022/03/21 04:38:13;;;;;;;5.60;2.92;;;23.20;29.80;;;;;;5093812;28;20379;-62
2022/03/21 04:40:47;;;;;;;6.60;3.20;;;23.20;29.60;;;;;;5093435;28;20963;-62
2022/03/21 04:43:14;;;;;;;4.75;3.00;;;23.20;29.40;;;;;;5092242;28;20390;-62
2022/03/21 04:45:43;;;;;;;4.25;2.75;;;23.20;29.20;;;;;;5093303;28;20406;-62
2022/03/21 04:48:10;;;;;;;5.60;3.42;;;23.20;29.90;;;;;;5092417;28;20444;-63
2022/03/21 04:50:36;;;;;;;5.53;3.10;;;23.20;30.00;;;;;;5093798;28;20425;-63
2022/03/21 04:53:02;;;;;;;4.97;3.10;;;23.20;29.90;;;;;;5093895;28;20902;-63
2022/03/21 04:55:28;;;;;;;4.57;3.10;;;23.20;29.70;;;;;;5093029;28;20503;-63
2022/03/21 04:57:54;;;;;;;4.53;2.80;;;23.20;29.70;;;;;;5093482;28;20477;-64
2022/03/21 05:00:20;;;;;;;5.00;3.28;;;23.20;29.70;;;;;;5093240;28;20910;-63
2022/03/21 05:02:46;;;;;;;3.57;2.83;;;23.30;29.50;;;;;;5093096;28;20382;-63
2022/03/21 05:05:12;;;;;;;4.55;3.05;;;23.20;29.70;;;;;;5092204;28;21000;-63
2022/03/21 05:07:45;;;;;;;4.72;2.80;;;23.20;29.80;;;;;;5092999;28;20809;-63
2022/03/21 05:10:17;;;;;;;5.32;3.30;;;23.20;29.70;;;;;;5093141;28;20382;-63
2022/03/21 05:12:42;;;;;;;5.00;2.85;;;23.20;29.00;;;;;;5093244;28;20512;-64
2022/03/21 05:15:09;;;;;;;4.60;3.10;;;23.20;29.20;;;;;;5092928;28;20410;-63
2022/03/21 05:17:35;;;;;;;5.55;3.28;;;23.20;28.90;;;;;;5092829;28;20892;-66
2022/03/21 05:20:05;;;;;;;5.47;3.33;;;23.20;28.70;;;;;;5093119;28;20846;-63
2022/03/21 05:22:31;;;;;;;6.37;3.50;;;23.20;28.50;;;;;;5092861;28;20428;-63
2022/03/21 05:35:54;;;;;;;5.85;3.00;;;23.20;29.20;;;;;;5105975;28;20381;-64
2022/03/21 05:38:22;;;;;;;7.53;3.20;;;23.20;29.20;;;;;;5098506;28;20390;-63
2022/03/21 05:40:49;;;;;;;5.57;3.20;;;23.10;29.20;;;;;;5093757;28;20381;-64
2022/03/21 05:43:14;;;;;;;6.93;3.08;;;23.00;29.70;;;;;;5091280;28;20763;-63
2022/03/21 05:45:41;;;;;;;9.40;3.47;;;23.00;29.80;;;;;;5091731;28;20405;-63
2022/03/21 05:50:51;;;;;;;5.40;3.10;;;23.10;30.20;;;;;;5091950;28;20742;-62
2022/03/21 05:53:18;;;;;;;5.78;3.30;;;23.20;30.60;;;;;;5090654;28;20398;-62
2022/03/21 05:55:45;;;;;;;5.88;3.10;;;23.20;31.00;;;;;;5091761;28;20386;-64
2022/03/21 05:58:12;;;;;;;7.28;3.35;;;23.30;30.90;;;;;;5088815;28;20484;-62
2022/03/21 06:00:39;;;;;;;6.47;3.22;;;23.30;31.20;;;;;;5087627;28;20394;-64
2022/03/21 06:03:07;;;;;;;5.45;3.00;;;23.30;30.80;;;;;;5090546;28;20405;-65
2022/03/21 06:05:32;;;;;;;6.63;3.20;;;23.30;30.90;;;;;;5089557;28;20910;-64
2022/03/21 06:07:58;;;;;;;6.28;3.15;;;23.30;30.40;;;;;;5090317;28;20425;-65
2022/03/21 06:10:24;;;;;;;5.53;3.35;;;23.20;30.00;;;;;;5090003;28;20856;-64
2022/03/21 06:12:50;;;;;;;5.53;3.23;;;23.30;30.30;;;;;;5089684;28;20473;-65
2022/03/21 06:15:16;;;;;;;6.20;3.08;;;23.20;30.50;;;;;;5089360;28;20423;-64
2022/03/21 06:17:43;;;;;;;6.70;2.80;;;23.30;30.70;;;;;;5088862;28;20390;-62
2022/03/21 06:20:12;;;;;;;5.32;3.10;;;23.20;30.20;;;;;;5090057;28;20861;-64
2022/03/21 06:22:38;;;;;;;4.65;3.10;;;23.20;31.40;;;;;;5090873;28;20390;-65
2022/03/21 06:25:05;;;;;;;5.30;2.90;;;23.20;31.40;;;;;;5091300;28;20386;-64
2022/03/21 06:27:31;;;;;;;5.00;3.20;;;23.20;31.00;;;;;;5090447;28;20432;-65
2022/03/21 06:29:56;;;;;;;4.53;2.83;;;23.20;31.30;;;;;;5090966;28;20457;-64
2022/03/21 06:32:23;;;;;;;5.00;3.30;;;23.10;31.30;;;;;;5090939;28;20818;-64
2022/03/21 06:34:49;;;;;;;4.90;3.00;;;23.10;30.90;;;;;;5091181;28;20381;-63
2022/03/21 06:37:15;;;;;;;3.90;3.20;;;23.10;30.90;;;;;;5090701;28;20386;-63
2022/03/21 06:39:40;;;;;;;4.38;3.30;;;23.10;30.90;;;;;;5090715;28;20719;-66
2022/03/21 06:42:06;;;;;;;5.13;2.90;;;23.20;30.90;;;;;;5090705;28;20429;-65
2022/03/21 06:44:32;;;;;;;5.38;3.00;;;23.20;30.30;;;;;;5089631;28;20929;-64
2022/03/21 06:46:58;;;;;;;5.27;2.77;;;23.20;30.80;;;;;;5089045;28;20496;-64
2022/03/21 06:49:29;;;;;;;4.65;3.08;;;23.20;30.10;;;;;;5090338;28;20394;-63
2022/03/21 06:51:56;;;;;;;5.97;3.10;;;23.20;30.00;;;;;;5090845;28;20460;-63
2022/03/21 06:54:22;;;;;;;6.40;3.40;;;23.20;30.00;;;;;;5090568;28;20386;-66
2022/03/21 06:56:47;;;;;;;5.00;3.20;;;23.20;30.00;;;;;;5090826;28;20412;-65
2022/03/21 06:59:13;;;;;;;4.72;3.00;;;23.20;30.00;;;;;;5090407;28;20387;-64
2022/03/21 07:01:39;;;;;;;5.90;3.30;;;23.20;30.00;;;;;;5090579;28;20393;-65
2022/03/21 07:04:05;;;;;;;4.38;2.90;;;23.20;30.00;;;;;;5093917;28;20389;-65
2022/03/21 07:06:30;;;;;;;5.10;3.17;;;23.20;30.10;;;;;;5094610;28;20406;-66
2022/03/21 07:08:56;;;;;;;4.25;3.05;;;23.20;30.00;;;;;;5095001;28;20385;-66
2022/03/21 07:11:22;;;;;;;4.23;2.80;;;23.20;30.00;;;;;;5094254;28;20378;-65
2022/03/21 07:13:49;;;;;;;5.25;3.20;;;23.20;30.00;;;;;;5094792;28;20397;-63
2022/03/21 07:16:16;;;;;;;4.15;3.10;;;23.20;30.00;;;;;;5094725;28;20386;-63
2022/03/21 07:18:45;;;;;;;4.82;3.28;;;23.20;29.80;;;;;;5093531;28;20405;-63
2022/03/21 07:21:15;;;;;;;5.35;3.40;;;23.10;30.00;;;;;;5094506;28;20413;-63
2022/03/21 07:23:41;;;;;;;4.03;3.10;;;23.10;30.00;;;;;;5094385;28;20381;-65
2022/03/21 07:26:06;;;;;;;4.65;2.90;;;23.20;30.00;;;;;;5094714;28;20477;-64
2022/03/21 07:28:32;;;;;;;5.17;3.37;;;23.20;29.80;;;;;;5074143;28;20884;-66
2022/03/21 07:30:58;;;;;;;4.65;3.00;;;23.20;29.80;;;;;;5085148;28;20443;-65
2022/03/21 07:33:24;;;;;;;4.00;2.95;;;23.20;29.80;;;;;;5093644;28;20401;-65
2022/03/21 07:35:50;;;;;;;4.03;3.00;;;23.20;29.90;;;;;;5088526;28;20394;-65
2022/03/21 07:38:19;;;;;;;4.70;3.03;;;23.20;29.80;;;;;;5093961;28;20386;-63
2022/03/21 07:40:48;;;;;;;4.82;3.00;;;23.10;30.00;;;;;;5094143;28;20401;-65
2022/03/21 07:43:15;;;;;;;4.28;3.05;;;23.20;30.00;;;;;;5093712;28;20413;-64
2022/03/21 07:48:27;;;;;;;3.63;2.70;;;23.10;29.80;;;;;;5094073;28;20421;-64
2022/03/21 07:50:53;;;;;;;4.15;3.22;;;23.10;29.80;;;;;;5094260;28;20428;-65
2022/03/21 07:53:19;;;;;;;4.10;2.97;;;23.20;29.80;;;;;;5087289;28;20804;-63
2022/03/21 07:55:45;;;;;;;3.78;3.00;;;23.20;29.70;;;;;;5082252;28;20462;-64
2022/03/21 07:58:11;;;;;;;4.22;3.30;;;23.20;29.60;;;;;;5073845;28;20471;-63
2022/03/21 08:00:39;;;;;;;4.45;3.38;;;23.20;29.60;;;;;;5072938;28;20391;-63
2022/03/21 08:03:07;;;;;;;3.97;3.22;;;23.20;29.50;;;;;;5072978;28;20755;-64
2022/03/21 08:05:32;;;;;;;3.63;2.85;;;23.20;29.50;;;;;;5073304;28;20808;-64
2022/03/21 08:07:58;;;;;;;3.93;2.70;;;23.30;29.40;;;;;;5073746;28;20767;-64
2022/03/21 08:10:24;;;;;;;3.88;2.97;;;23.30;29.30;;;;;;5055300;28;20542;-64
2022/03/21 08:12:50;;;;;;;3.42;3.00;;;23.30;29.30;;;;;;5073603;28;20875;-64
2022/03/21 08:15:17;;;;;;;4.67;3.30;;;23.30;29.20;;;;;;5072349;28;20391;-64
2022/03/21 08:17:59;;;;;;;4.80;2.95;;;23.40;29.20;;;;;;5073325;28;20759;-65
2022/03/21 08:20:33;;;;;;;3.80;2.90;;;23.40;29.10;;;;;;5073557;28;20463;-63
2022/03/21 08:22:59;;;;;;;3.95;3.10;;;23.40;29.10;;;;;;5073211;28;20388;-64
2022/03/21 08:25:26;;;;;;;4.68;3.00;;;23.40;29.00;;;;;;5072852;28;20411;-66
2022/03/21 08:27:52;;;;;;;4.20;2.90;;;23.50;29.00;;;;;;5073335;28;20411;-63
2022/03/21 08:30:18;;;;;;;3.95;2.85;;;23.50;29.00;;;;;;5073090;28;20399;-65
2022/03/21 08:32:47;;;;;;;3.50;3.20;;;23.50;28.90;;;;;;5091378;28;20382;-64
2022/03/21 08:35:15;;;;;;;3.97;2.97;;;23.50;28.90;;;;;;5093402;28;20382;-64
2022/03/21 08:37:41;;;;;;;3.42;2.90;;;23.60;28.90;;;;;;5093311;28;20386;-63
2022/03/21 08:40:08;;;;;;;3.23;2.70;;;23.60;28.80;;;;;;5075166;28;20397;-62
2022/03/21 08:42:35;;;;;;;3.55;3.10;;;23.70;28.80;;;;;;5093470;28;20416;-63
2022/03/21 08:45:00;;;;;;;3.28;2.95;;;23.70;28.70;;;;;;5093389;28;20386;-65
2022/03/21 08:47:26;;;;;;;4.17;3.20;;;23.70;28.70;;;;;;5092451;28;20504;-65
2022/03/21 08:49:52;;;;;;;3.70;3.00;;;23.70;28.60;;;;;;5093085;28;20379;-64
2022/03/21 08:52:19;;;;;;;3.67;3.10;;;23.80;28.60;;;;;;5093085;28;20425;-63
2022/03/21 08:54:46;;;;;;;3.70;3.10;;;23.80;28.60;;;;;;5075221;28;20386;-67
2022/03/21 08:57:11;;;;;;;4.00;3.20;;;23.80;28.50;;;;;;5093354;28;20439;-64
2022/03/21 08:59:37;;;;;;;3.78;3.30;;;23.80;28.50;;;;;;5092514;28;20513;-64
2022/03/21 09:02:04;;;;;;;3.60;3.03;;;23.80;28.50;;;;;;5092743;28;20735;-64
2022/03/21 09:04:30;;;;;;;4.45;3.00;;;23.90;28.50;;;;;;5092518;28;20424;-64
2022/03/21 09:06:55;;;;;;;4.38;3.33;;;23.80;28.40;;;;;;5092808;28;20455;-66
2022/03/21 09:09:21;;;;;;;4.13;3.03;;;23.80;28.40;;;;;;5092449;28;20473;-66
2022/03/21 09:11:47;;;;;;;3.85;3.08;;;23.80;28.40;;;;;;5092581;28;20374;-66
2022/03/21 09:14:14;;;;;;;3.30;2.90;;;23.90;28.40;;;;;;5092525;28;20392;-65
2022/03/21 09:16:42;;;;;;;3.85;2.88;;;23.90;28.40;;;;;;5092735;28;20382;-64
2022/03/21 09:19:08;;;;;;;4.55;3.03;;;23.90;28.40;;;;;;5092043;28;20382;-65
2022/03/21 09:21:34;;;;;;;3.88;2.80;;;23.90;28.40;;;;;;5091632;28;20788;-64
2022/03/21 09:24:01;;;;;;;3.78;3.00;;;23.90;28.30;;;;;;5092707;28;20390;-67
2022/03/21 09:26:27;;;;;;;3.75;3.03;;;23.90;28.30;;;;;;5091332;28;20402;-64
2022/03/21 09:28:59;;;;;;;3.78;2.97;;;23.90;28.30;;;;;;5092329;28;20394;-65
2022/03/21 09:31:26;;;;;;;3.65;3.08;;;24.00;28.30;;;;;;5092225;28;20365;-66
2022/03/21 09:33:52;;;;;;;3.88;2.90;;;23.90;28.30;;;;;;5092294;28;20390;-64
2022/03/21 09:36:18;;;;;;;3.03;2.72;;;23.90;28.20;;;;;;5092244;28;20931;-65
2022/03/21 09:38:44;;;;;;;3.10;2.70;;;23.90;28.20;;;;;;5092285;28;20378;-63
2022/03/21 09:41:15;;;;;;;3.38;2.90;;;23.90;28.20;;;;;;5092220;28;20378;-65
2022/03/21 09:43:41;;;;;;;3.53;2.90;;;24.00;28.20;;;;;;5091887;28;20425;-67
2022/03/21 09:46:08;;;;;;;3.70;3.08;;;23.90;28.20;;;;;;5089673;28;20429;-66
2022/03/21 09:48:35;;;;;;;3.47;2.80;;;23.90;28.20;;;;;;5092504;28;20409;-65
2022/03/21 09:51:04;;;;;;;3.72;2.85;;;23.90;28.20;;;;;;5092220;28;20417;-64
2022/03/21 09:53:30;;;;;;;4.00;3.00;;;23.90;28.20;;;;;;5091579;28;20394;-65
2022/03/21 09:55:56;;;;;;;3.95;2.90;;;23.90;28.20;;;;;;5091946;28;20386;-63
2022/03/21 09:58:22;;;;;;;3.10;2.67;;;23.90;28.20;;;;;;5071495;28;20825;-64
2022/03/21 10:00:51;;;;;;;3.90;2.90;;;23.90;28.20;;;;;;5071332;28;20950;-64
2022/03/21 10:03:17;;;;;;;3.35;2.90;;;23.90;28.20;;;;;;5072085;28;20396;-65
2022/03/21 10:05:46;;;;;;;3.75;3.00;;;23.90;28.20;;;;;;5071187;28;20486;-65
2022/03/21 10:08:17;;;;;;;4.10;3.08;;;23.90;28.20;;;;;;5071065;28;20416;-66
2022/03/21 10:11:05;;;;;;;4.05;2.97;;;23.90;28.10;;;;;;5053126;28;20391;-67
2022/03/21 10:13:36;;;;;;;3.35;2.65;;;23.90;28.10;;;;;;5070987;28;20391;-66
2022/03/21 10:16:13;;;;;;;3.43;2.93;;;23.90;28.10;;;;;;5071145;28;20486;-64
2022/03/21 10:18:52;;;;;;;3.17;2.80;;;23.90;28.10;;;;;;5071458;28;20396;-64
2022/03/21 10:21:20;;;;;;;3.53;2.90;;;23.90;28.10;;;;;;5070909;28;20386;-66
2022/03/21 10:24:02;;;;;;;3.38;2.72;;;23.90;28.20;;;;;;5070966;28;20388;-67
2022/03/21 10:26:36;;;;;;;3.30;2.63;;;23.90;28.20;;;;;;5071235;28;20419;-67
2022/03/21 10:29:11;;;;;;;3.27;2.77;;;23.80;28.10;;;;;;5071221;28;20388;-66
2022/03/21 10:31:37;;;;;;;3.30;2.85;;;23.80;28.10;;;;;;5070823;28;20382;-63
2022/03/21 10:34:08;;;;;;;3.80;2.60;;;23.80;28.10;;;;;;5070651;28;20396;-65
2022/03/21 10:36:34;;;;;;;3.30;2.78;;;23.80;28.10;;;;;;5071238;28;20380;-67
2022/03/21 10:39:10;;;;;;;3.73;2.60;;;23.80;28.10;;;;;;5052734;28;20811;-63
2022/03/21 10:41:38;;;;;;;2.90;2.42;;;23.80;28.10;;;;;;5070986;28;20376;-64
2022/03/21 10:44:05;;;;;;;3.30;2.55;;;23.90;28.00;;;;;;5070944;28;20387;-64
2022/03/21 10:46:31;;;;;;;3.28;2.63;;;23.90;28.00;;;;;;5078537;28;20448;-66
2022/03/21 10:49:07;;;;;;;2.90;2.45;;;23.90;28.00;;;;;;5089269;28;21289;-64
2022/03/21 10:51:49;;;;;;;3.42;2.70;;;24.00;28.00;;;;;;5090755;28;20396;-64
2022/03/21 10:54:54;;;;;;;3.33;2.58;;;23.90;27.90;;;;;;5090969;28;20386;-64
2022/03/21 10:57:31;;;;;;;3.20;2.60;;;23.90;27.90;;;;;;5091124;28;20378;-67
2022/03/21 11:00:16;;;;;;;2.80;2.40;;;24.00;28.00;;;;;;5089741;28;20434;-66
2022/03/21 11:03:05;;;;;;;3.15;2.60;;;24.00;27.90;;;;;;5091052;28;20381;-67
2022/03/21 11:05:35;;;;;;;3.55;2.85;;;24.00;27.90;;;;;;5090824;28;20386;-64
2022/03/21 11:08:01;;;;;;;3.17;2.60;;;23.90;27.90;;;;;;5090600;28;20456;-63
2022/03/21 11:10:27;;;;;;;3.03;2.40;;;23.90;27.90;;;;;;5090337;28;20378;-66
2022/03/21 11:12:55;;;;;;;3.30;2.53;;;24.00;27.90;;;;;;5090954;28;20385;-64
2022/03/21 11:15:22;;;;;;;2.90;2.30;;;23.90;27.90;;;;;;5087819;28;21341;-64
2022/03/21 11:17:48;;;;;;;3.17;2.55;;;23.90;27.90;;;;;;5089020;28;20806;-64
2022/03/21 11:20:15;;;;;;;3.40;2.75;;;24.00;27.90;;;;;;5088488;28;20462;-64
2022/03/21 11:22:42;;;;;;;3.10;2.50;;;23.90;27.90;;;;;;5089758;28;20389;-63
2022/03/21 11:25:15;;;;;;;3.13;2.50;;;24.00;28.00;;;;;;5089737;28;20393;-67
2022/03/21 11:27:46;;;;;;;3.15;2.85;;;23.90;27.90;;;;;;5090476;28;20414;-65
2022/03/21 11:30:31;;;;;;;3.03;2.55;;;23.90;28.40;;;;;;5090603;28;20737;-65
2022/03/21 11:33:33;;;;;;;3.40;2.80;;;23.90;27.90;;;;;;5090947;28;20421;-63
2022/03/21 11:36:04;;;;;;;2.65;2.40;;;24.00;27.90;;;;;;5089440;28;20446;-65
2022/03/21 11:38:34;;;;;;;3.27;2.60;;;23.90;27.90;;;;;;5090731;28;20429;-64
2022/03/21 11:41:26;;;;;;;3.40;2.67;;;24.00;27.90;;;;;;5090765;28;20450;-64
2022/03/21 11:44:04;;;;;;;2.97;2.33;;;24.00;27.90;;;;;;5087111;28;20408;-64
2022/03/21 11:46:33;;;;;;;3.08;2.40;;;24.10;27.90;;;;;;5090450;28;20735;-64
2022/03/21 11:49:04;;;;;;;3.40;2.50;;;24.10;27.80;;;;;;5090834;28;20400;-64
2022/03/21 11:51:40;;;;;;;3.17;2.65;;;24.10;27.80;;;;;;5094031;28;20373;-66
2022/03/21 11:54:31;;;;;;;2.58;2.10;;;24.10;27.80;;;;;;5094420;28;20454;-64
2022/03/21 11:57:00;;;;;;;3.17;2.30;;;24.10;27.70;;;;;;5093269;28;20386;-63
2022/03/21 11:59:34;;;;;;;2.90;2.33;;;24.10;27.60;;;;;;5094252;28;20941;-65
2022/03/21 12:02:09;;;;;;;2.90;2.47;;;24.20;27.70;;;;;;5094082;28;20378;-64
2022/03/21 12:04:35;;;;;;;3.13;2.47;;;24.20;27.70;;;;;;5094332;28;20882;-63
2022/03/21 12:07:13;;;;;;;2.60;2.20;;;24.20;27.70;;;;;;5094094;28;20402;-64
2022/03/21 12:09:43;;;;;;;3.38;2.50;;;24.20;27.60;;;;;;5093625;28;20418;-64
2022/03/21 12:12:13;;;;;;;2.70;2.50;;;24.20;27.60;;;;;;5093847;28;20405;-63
2022/03/21 12:14:45;;;;;;;2.80;2.40;;;24.30;27.60;;;;;;5093843;28;20426;-64
2022/03/21 12:17:11;;;;;;;3.13;2.20;;;24.30;27.50;;;;;;5093822;28;20374;-64
2022/03/21 12:22:27;;;;;;;3.35;2.30;;;24.30;27.60;;;;;;5093636;28;20762;-64
2022/03/21 12:24:53;;;;;;;4.07;2.20;;;24.30;27.60;;;;;;5093870;28;20378;-64
2022/03/21 12:27:34;;;;;;;4.53;2.40;;;25.70;29.50;;;;;;5093467;28;20777;-65
2022/03/21 12:30:23;;;;;;;3.63;2.20;;;26.70;28.70;;;;;;5092653;28;20412;-64
2022/03/21 12:32:53;;;;;;;2.97;2.10;;;27.30;28.60;;;;;;5085667;28;20954;-64
2022/03/21 12:35:45;;;;;;;3.60;2.20;;;27.70;28.20;;;;;;5092565;28;20457;-66
2022/03/21 12:38:11;;;;;;;3.00;2.13;;;27.90;28.00;;;;;;5079843;28;20414;-64
2022/03/21 12:40:52;;;;;;;4.53;2.30;;;28.00;27.90;;;;;;5092517;28;20784;-64
2022/03/21 12:43:22;;;;;;;4.43;2.17;;;28.10;28.20;;;;;;5090779;28;20476;-65
2022/03/21 12:45:49;;;;;;;3.83;1.95;;;28.30;28.20;;;;;;5089011;28;20382;-64
2022/03/21 12:48:19;;;;;;;3.83;2.10;;;28.40;28.10;;;;;;5092787;28;20413;-65
2022/03/21 12:50:49;;;;;;;3.85;2.03;;;28.50;27.90;;;;;;5093914;28;20390;-65
2022/03/21 12:53:19;;;;;;;3.30;2.17;;;28.50;27.60;;;;;;5093366;28;20473;-65
2022/03/21 12:55:59;;;;;;;3.45;2.20;;;28.50;27.50;;;;;;5092683;28;20473;-64
2022/03/21 12:58:25;;;;;;;2.75;2.08;;;28.60;27.30;;;;;;5093609;28;20427;-65
2022/03/21 13:00:50;;;;;;;3.60;2.20;;;28.70;27.20;;;;;;5092747;28;20378;-65
2022/03/21 13:03:17;;;;;;;3.63;2.22;;;28.80;27.10;;;;;;5092828;28;20392;-64
2022/03/21 13:11:28;;;;;;;3.65;2.03;;;28.90;26.80;;;;;;5072925;28;20386;-65
2022/03/21 13:13:56;;;;;;;3.15;2.30;;;29.00;26.70;;;;;;5072308;28;20956;-65
2022/03/21 13:16:24;;;;;;;4.03;1.90;;;29.00;26.60;;;;;;5072395;28;20434;-64
2022/03/21 13:18:50;;;;;;;3.90;2.00;;;29.10;26.60;;;;;;5072099;28;20736;-65
2022/03/21 13:21:20;;;;;;;3.17;2.10;;;29.10;26.50;;;;;;5072123;28;20395;-65